createdAt,value
2023-02-02T00:01:46.652Z,102542.31
2023-02-02T00:04:19.247Z,102539.69
2023-02-02T00:06:47.582Z,102532.63
2023-02-02T00:09:17.244Z,102541.53
2023-02-02T00:11:46.848Z,102536.09
2023-02-02T00:14:15.399Z,102539.69
2023-02-02T00:16:44.707Z,102533.31
2023-02-02T00:19:15.808Z,102543.16
2023-02-02T00:21:46.447Z,102524.41
2023-02-02T00:24:17.996Z,102531.50
2023-02-02T00:26:47.616Z,102530.53
2023-02-02T00:29:18.434Z,102536.69
2023-02-02T00:31:46.537Z,102535.03
2023-02-02T00:34:16.064Z,102533.19
2023-02-02T00:36:46.427Z,102535.03
2023-02-02T00:39:18.602Z,102535.13
2023-02-02T00:41:47.077Z,102538.78
2023-02-02T00:44:32.315Z,102539.69
2023-02-02T00:47:00.280Z,102543.56
2023-02-02T00:49:28.224Z,102544.41
2023-02-02T00:51:58.110Z,102540.88
2023-02-02T00:54:26.410Z,102531.88
2023-02-02T00:56:54.566Z,102529.06
2023-02-02T00:59:22.629Z,102526.41
2023-02-02T01:01:50.910Z,102533.59
2023-02-02T01:04:19.610Z,102526.28
2023-02-02T01:06:47.748Z,102521.25
2023-02-02T01:09:17.521Z,102517.59
2023-02-02T01:11:47.264Z,102511.53
2023-02-02T01:14:15.543Z,102526.94
2023-02-02T01:16:43.754Z,102528.78
2023-02-02T01:19:14.173Z,102532.41
2023-02-02T01:21:43.057Z,102527.16
2023-02-02T01:24:11.439Z,102529.72
2023-02-02T01:26:40.909Z,102537.66
2023-02-02T01:29:08.969Z,102531.44
2023-02-02T01:31:37.164Z,102529.72
2023-02-02T01:34:05.257Z,102520.72
2023-02-02T01:36:33.255Z,102528.69
2023-02-02T01:39:01.468Z,102525.50
2023-02-02T01:41:29.555Z,102520.94
2023-02-02T01:44:01.320Z,102528.97
2023-02-02T01:46:31.088Z,102509.31
2023-02-02T01:49:05.498Z,102506.72
2023-02-02T01:51:43.253Z,102504.91
2023-02-02T01:54:16.978Z,102512.31
2023-02-02T01:56:52.255Z,102504.16
2023-02-02T01:59:23.307Z,102493.72
2023-02-02T02:01:55.124Z,102498.09
2023-02-02T02:04:25.856Z,102496.88
2023-02-02T02:06:54.499Z,102481.06
2023-02-02T02:09:23.085Z,102487.97
2023-02-02T02:11:54.209Z,102477.53
2023-02-02T02:14:42.496Z,102478.22
2023-02-02T02:17:30.775Z,102474.78
2023-02-02T02:20:43.124Z,102481.66
2023-02-02T02:24:02.851Z,102470.16
2023-02-02T02:26:54.418Z,102469.19
2023-02-02T02:29:43.944Z,102477.25
2023-02-02T02:32:40.350Z,102483.56
2023-02-02T02:35:14.887Z,102478.31
2023-02-02T02:37:50.486Z,102485.66
2023-02-02T02:40:25.406Z,102480.47
2023-02-02T02:42:59.427Z,102493.13
2023-02-02T02:45:30.187Z,102495.91
2023-02-02T02:48:00.022Z,102489.66
2023-02-02T02:50:28.197Z,102477.59
2023-02-02T02:53:03.479Z,102477.75
2023-02-02T02:55:38.214Z,102476.03
2023-02-02T02:58:11.089Z,102468.19
2023-02-02T03:00:53.209Z,102474.50
2023-02-02T03:03:32.320Z,102474.50
2023-02-02T03:06:09.692Z,102467.56
2023-02-02T03:08:41.846Z,102478.50
2023-02-02T03:11:12.645Z,102481.19
2023-02-02T03:13:42.822Z,102473.41
2023-02-02T03:16:11.693Z,102484.22
2023-02-02T03:18:41.239Z,102477.13
2023-02-02T03:21:09.413Z,102478.06
2023-02-02T03:23:38.702Z,102487.66
2023-02-02T03:26:07.347Z,102477.72
2023-02-02T03:28:36.144Z,102477.44
2023-02-02T03:31:04.436Z,102480.44
2023-02-02T03:33:34.268Z,102482.94
2023-02-02T03:36:04.234Z,102480.00
2023-02-02T03:38:32.553Z,102477.72
2023-02-02T03:41:00.738Z,102480.31
2023-02-02T03:43:28.767Z,102487.97
2023-02-02T03:45:57.680Z,102484.31
2023-02-02T03:48:26.298Z,102476.97
2023-02-02T03:50:54.490Z,102477.75
2023-02-02T03:53:24.470Z,102460.19
2023-02-02T03:55:52.793Z,102473.03
2023-02-02T03:58:22.446Z,102465.94
2023-02-02T04:00:50.865Z,102459.91
2023-02-02T04:03:19.018Z,102466.41
2023-02-02T04:05:50.816Z,102452.34
2023-02-02T04:08:18.780Z,102449.72
2023-02-02T04:10:48.363Z,102462.25
2023-02-02T04:13:16.801Z,102448.69
2023-02-02T04:15:44.849Z,102446.88
2023-02-02T04:18:12.836Z,102441.41
2023-02-02T04:20:40.843Z,102450.50
2023-02-02T04:23:08.789Z,102448.88
2023-02-02T04:25:36.816Z,102453.38
2023-02-02T04:28:07.335Z,102452.41
2023-02-02T04:30:35.352Z,102454.22
2023-02-02T04:33:03.582Z,102445.03
2023-02-02T04:35:31.762Z,102446.00
2023-02-02T04:37:59.870Z,102439.69
2023-02-02T04:40:28.030Z,102445.03
2023-02-02T04:42:56.072Z,102446.59
2023-02-02T04:45:25.833Z,102435.00
2023-02-02T04:47:56.171Z,102438.38
2023-02-02T04:50:24.179Z,102437.41
2023-02-02T04:52:52.411Z,102445.47
2023-02-02T04:55:21.129Z,102438.97
2023-02-02T04:57:52.218Z,102441.38
2023-02-02T05:00:20.612Z,102442.81
2023-02-02T05:02:49.985Z,102444.53
2023-02-02T05:05:18.271Z,102449.78
2023-02-02T05:07:46.440Z,102450.47
2023-02-02T05:10:15.126Z,102450.28
2023-02-02T05:12:45.213Z,102443.84
2023-02-02T05:15:13.628Z,102451.63
2023-02-02T05:17:42.066Z,102450.56
2023-02-02T05:20:16.397Z,102454.00
2023-02-02T05:22:44.552Z,102453.16
2023-02-02T05:25:12.724Z,102452.13
2023-02-02T05:27:40.979Z,102446.75
2023-02-02T05:30:12.478Z,102446.66
2023-02-02T05:32:40.698Z,102445.69
2023-02-02T05:35:14.479Z,102444.75
2023-02-02T05:37:44.378Z,102448.97
2023-02-02T05:40:13.368Z,102446.28
2023-02-02T05:42:41.355Z,102450.91
2023-02-02T05:45:10.457Z,102457.13
2023-02-02T05:47:38.407Z,102446.19
2023-02-02T05:50:06.932Z,102450.69
2023-02-02T05:52:38.097Z,102444.28
2023-02-02T05:55:06.723Z,102451.75
2023-02-02T05:57:35.123Z,102456.06
2023-02-02T06:00:03.612Z,102455.28
2023-02-02T06:02:32.031Z,102467.56
2023-02-02T06:05:00.105Z,102459.69
2023-02-02T06:07:28.230Z,102460.84
2023-02-02T06:09:58.328Z,102473.28
2023-02-02T06:12:26.322Z,102471.56
2023-02-02T06:14:54.802Z,102465.41
2023-02-02T06:17:22.829Z,102464.75
2023-02-02T06:19:50.909Z,102473.47
2023-02-02T06:22:18.904Z,102462.16
2023-02-02T06:24:46.877Z,102465.59
2023-02-02T06:27:16.527Z,102467.31
2023-02-02T06:29:44.412Z,102472.69
2023-02-02T06:32:12.510Z,102464.47
2023-02-02T06:34:40.530Z,102476.16
2023-02-02T06:37:08.637Z,102481.34
2023-02-02T06:39:36.728Z,102480.41
2023-02-02T06:42:19.362Z,102482.31
2023-02-02T06:44:50.610Z,102478.66
2023-02-02T06:47:18.508Z,102484.81
2023-02-02T06:49:46.575Z,102478.47
2023-02-02T06:52:14.552Z,102477.34
2023-02-02T06:54:42.526Z,102486.34
2023-02-02T06:57:10.582Z,102487.31
2023-02-02T06:59:38.614Z,102491.50
2023-02-02T07:02:12.294Z,102505.13
2023-02-02T07:04:40.229Z,102501.59
2023-02-02T07:07:08.168Z,102500.72
2023-02-02T07:09:36.964Z,102503.97
2023-02-02T07:12:05.106Z,102499.19
2023-02-02T07:14:33.040Z,102499.66
2023-02-02T07:17:01.015Z,102504.16
2023-02-02T07:19:30.707Z,102496.88
2023-02-02T07:21:58.626Z,102501.38
2023-02-02T07:24:28.664Z,102505.19
2023-02-02T07:26:58.118Z,102499.19
2023-02-02T07:29:26.680Z,102496.50
2023-02-02T07:31:55.022Z,102528.81
2023-02-02T07:34:23.328Z,102517.16
2023-02-02T07:36:52.990Z,102502.19
2023-02-02T07:39:21.087Z,102503.16
2023-02-02T07:41:49.161Z,102506.69
2023-02-02T07:44:17.993Z,102501.94
2023-02-02T07:46:47.129Z,102498.31
2023-02-02T07:49:16.927Z,102504.53
2023-02-02T07:51:47.746Z,102499.19
2023-02-02T07:54:18.338Z,102511.63
2023-02-02T07:56:46.550Z,102507.97
2023-02-02T07:59:14.676Z,102510.78
2023-02-02T08:01:43.379Z,102509.19
2023-02-02T08:04:11.347Z,102517.97
2023-02-02T08:06:41.568Z,102517.00
2023-02-02T08:09:11.135Z,102521.50
2023-02-02T08:11:40.642Z,102520.44
2023-02-02T08:14:08.799Z,102535.78
2023-02-02T08:16:37.171Z,102528.19
2023-02-02T08:19:05.720Z,102531.00
2023-02-02T08:21:34.811Z,102528.88
2023-02-02T08:24:04.650Z,102529.91
2023-02-02T08:26:33.436Z,102542.28
2023-02-02T08:29:05.818Z,102543.25
2023-02-02T08:31:35.762Z,102546.91
2023-02-02T08:34:03.894Z,102553.88
2023-02-02T08:36:35.618Z,102553.78
2023-02-02T08:39:05.999Z,102548.41
2023-02-02T08:41:34.825Z,102551.03
2023-02-02T08:44:07.041Z,102556.19
2023-02-02T08:46:41.908Z,102548.06
2023-02-02T08:49:11.748Z,102556.88
2023-02-02T08:51:39.818Z,102539.91
2023-02-02T08:54:07.810Z,102540.00
2023-02-02T08:56:35.835Z,102542.31
2023-02-02T08:59:06.148Z,102535.22
2023-02-02T09:01:35.753Z,102545.66
2023-02-02T09:04:05.954Z,102553.63
2023-02-02T09:06:35.715Z,102558.03
2023-02-02T09:09:04.706Z,102555.16
2023-02-02T09:11:33.203Z,102557.44
2023-02-02T09:14:02.315Z,102562.63
2023-02-02T09:16:31.713Z,102555.53
2023-02-02T09:18:59.948Z,102565.03
2023-02-02T09:21:29.063Z,102566.66
2023-02-02T09:23:56.897Z,102573.66
2023-02-02T09:26:28.704Z,102566.19
2023-02-02T09:28:59.213Z,102569.44
2023-02-02T09:31:27.760Z,102567.78
2023-02-02T09:33:57.504Z,102575.44
2023-02-02T09:36:26.973Z,102579.97
2023-02-02T09:38:58.277Z,102585.03
2023-02-02T09:42:01.303Z,102589.47
2023-02-02T09:44:46.893Z,102588.41
2023-02-02T09:47:20.759Z,102589.28
2023-02-02T09:50:01.555Z,102595.41
2023-02-02T09:52:31.856Z,102598.69
2023-02-02T09:55:04.551Z,102599.44
2023-02-02T09:57:40.595Z,102582.44
2023-02-02T10:00:25.769Z,102583.50
2023-02-02T10:03:01.008Z,102585.25
2023-02-02T10:05:43.922Z,102589.53
2023-02-02T10:08:33.652Z,102589.38
2023-02-02T10:11:10.501Z,102600.84
2023-02-02T10:13:43.770Z,102612.56
2023-02-02T10:16:18.217Z,102611.03
2023-02-02T10:18:53.115Z,102614.59
2023-02-02T10:21:30.400Z,102601.66
2023-02-02T10:24:00.167Z,102609.59
2023-02-02T10:26:38.080Z,102603.41
2023-02-02T10:29:17.006Z,102625.41
2023-02-02T10:31:54.412Z,102620.72
2023-02-02T10:34:29.355Z,102624.84
2023-02-02T10:37:06.692Z,102625.47
2023-02-02T10:39:48.130Z,102641.22
2023-02-02T10:42:28.176Z,102646.81
2023-02-02T10:45:00.293Z,102641.81
2023-02-02T10:47:31.590Z,102632.97
2023-02-02T10:50:09.169Z,102635.28
2023-02-02T10:52:39.873Z,102632.78
2023-02-02T10:55:18.628Z,102637.78
2023-02-02T10:58:02.137Z,102634.34
2023-02-02T11:00:36.305Z,102634.16
2023-02-02T11:03:07.320Z,102642.09
2023-02-02T11:05:53.558Z,102631.38
2023-02-02T11:08:30.462Z,102633.25
2023-02-02T11:11:09.983Z,102644.13
2023-02-02T11:13:43.463Z,102637.13
2023-02-02T11:16:32.685Z,102641.44
2023-02-02T11:19:23.907Z,102637.41
2023-02-02T11:21:54.849Z,102647.78
2023-02-02T11:24:28.961Z,102660.94
2023-02-02T11:27:01.238Z,102639.03
2023-02-02T11:29:32.654Z,102638.75
2023-02-02T11:32:20.094Z,102624.44
2023-02-02T11:34:48.222Z,102638.84
2023-02-02T11:37:22.285Z,102617.22
2023-02-02T11:39:53.913Z,102612.25
2023-02-02T11:42:29.449Z,102611.56
2023-02-02T11:45:00.979Z,102609.72
2023-02-02T11:47:31.792Z,102639.28
2023-02-02T11:50:02.603Z,102625.66
2023-02-02T11:52:34.227Z,102617.78
2023-02-02T11:55:16.360Z,102636.50
2023-02-02T11:58:27.538Z,102621.44
2023-02-02T12:01:00.306Z,102621.44
2023-02-02T12:03:34.713Z,102612.41
2023-02-02T12:06:18.565Z,102613.50
2023-02-02T12:08:47.255Z,102617.97
2023-02-02T12:11:29.637Z,102610.03
2023-02-02T12:14:12.166Z,102611.00
2023-02-02T12:16:53.959Z,102626.44
2023-02-02T12:19:46.152Z,102622.44
2023-02-02T12:22:25.656Z,102617.06
2023-02-02T12:24:58.655Z,102617.66
2023-02-02T12:27:38.952Z,102613.25
2023-02-02T12:30:24.305Z,102614.78
2023-02-02T12:33:07.244Z,102615.91
2023-02-02T12:35:54.811Z,102623.00
2023-02-02T12:38:39.776Z,102615.69
2023-02-02T12:41:25.437Z,102616.47
2023-02-02T12:44:04.163Z,102602.97
2023-02-02T12:46:55.767Z,102608.91
2023-02-02T12:49:37.642Z,102609.19
2023-02-02T12:52:31.668Z,102600.44
2023-02-02T12:55:13.357Z,102588.47
2023-02-02T12:57:54.221Z,102598.94
2023-02-02T13:00:39.839Z,102592.03
2023-02-02T13:03:22.542Z,102594.00
2023-02-02T13:06:03.809Z,102589.56
2023-02-02T13:08:35.137Z,102585.91
2023-02-02T13:11:28.484Z,102587.19
2023-02-02T13:13:59.827Z,102577.66
2023-02-02T13:16:32.204Z,102590.81
2023-02-02T13:19:05.851Z,102578.97
2023-02-02T13:21:34.183Z,102579.63
2023-02-02T13:24:06.048Z,102570.38
2023-02-02T13:26:39.047Z,102587.34
2023-02-02T13:29:13.000Z,102569.91
2023-02-02T13:31:48.623Z,102572.16
2023-02-02T13:34:22.086Z,102574.19
2023-02-02T13:36:55.568Z,102558.03
2023-02-02T13:39:30.388Z,102564.72
2023-02-02T13:41:58.923Z,102606.88
2023-02-02T13:44:33.474Z,102571.38
2023-02-02T13:47:06.844Z,102567.47
2023-02-02T13:49:41.040Z,102590.34
2023-02-02T13:52:26.217Z,102576.47
2023-02-02T13:55:25.956Z,102609.97
2023-02-02T13:58:17.303Z,102578.47
2023-02-02T14:00:49.560Z,102577.66
2023-02-02T14:03:32.276Z,102578.03
2023-02-02T14:06:07.522Z,102574.38
2023-02-02T14:08:36.567Z,102582.53
2023-02-02T14:11:06.949Z,102572.94
2023-02-02T14:14:00.997Z,102581.53
2023-02-02T14:16:47.992Z,102574.38
2023-02-02T14:19:19.628Z,102573.53
2023-02-02T14:22:01.906Z,102577.25
2023-02-02T14:24:42.279Z,102575.66
2023-02-02T14:27:57.855Z,102560.09
2023-02-02T14:30:35.746Z,102579.06
2023-02-02T14:33:39.954Z,102581.75
2023-02-02T14:36:15.397Z,102559.88
2023-02-02T14:39:05.530Z,102561.63
2023-02-02T14:42:28.731Z,102564.41
2023-02-02T14:45:15.394Z,102567.38
2023-02-02T14:47:49.882Z,102565.66
2023-02-02T14:50:23.212Z,102568.91
2023-02-02T14:53:03.025Z,102555.28
2023-02-02T14:55:31.735Z,102546.06
2023-02-02T14:58:02.135Z,102561.78
2023-02-02T15:00:33.518Z,102552.06
2023-02-02T15:03:47.579Z,102570.00
2023-02-02T15:06:33.176Z,102565.78
2023-02-02T15:09:36.866Z,102567.88
2023-02-02T15:12:30.842Z,102558.22
2023-02-02T15:15:08.192Z,102552.31
2023-02-02T15:17:53.483Z,102558.22
2023-02-02T15:20:28.362Z,102571.28
2023-02-02T15:23:00.894Z,102568.13
2023-02-02T15:25:37.071Z,102578.63
2023-02-02T15:28:14.913Z,102580.19
2023-02-02T15:30:45.313Z,102567.31
2023-02-02T15:33:25.403Z,102576.53
2023-02-02T15:35:54.905Z,102581.66
2023-02-02T15:38:32.973Z,102586.28
2023-02-02T15:41:05.640Z,102583.19
2023-02-02T15:43:35.825Z,102585.03
2023-02-02T15:46:07.725Z,102577.94
2023-02-02T15:48:36.573Z,102581.59
2023-02-02T15:51:06.839Z,102575.66
2023-02-02T15:53:48.970Z,102580.06
2023-02-02T15:56:30.614Z,102599.63
2023-02-02T15:59:00.121Z,102588.69
2023-02-02T16:01:33.799Z,102585.91
2023-02-02T16:04:15.851Z,102582.44
2023-02-02T16:06:44.782Z,102593.94
2023-02-02T16:09:32.784Z,102583.50
2023-02-02T16:12:05.441Z,102574.69
2023-02-02T16:14:37.673Z,102580.25
2023-02-02T16:17:13.791Z,102579.50
2023-02-02T16:19:45.181Z,102595.22
2023-02-02T16:22:18.211Z,102583.16
2023-02-02T16:24:51.307Z,102584.28
2023-02-02T16:27:24.174Z,102591.69
2023-02-02T16:29:52.333Z,102585.94
2023-02-02T16:32:28.614Z,102589.66
2023-02-02T16:34:57.540Z,102588.34
2023-02-02T16:37:28.172Z,102587.53
2023-02-02T16:39:57.108Z,102578.16
2023-02-02T16:42:31.868Z,102583.69
2023-02-02T16:45:01.085Z,102583.69
2023-02-02T16:47:39.002Z,102574.78
2023-02-02T16:50:27.660Z,102584.66
2023-02-02T16:52:59.357Z,102578.34
2023-02-02T16:55:43.472Z,102580.84
2023-02-02T16:58:20.903Z,102580.84
2023-02-02T17:01:08.786Z,102586.38
2023-02-02T17:03:50.262Z,102589.25
2023-02-02T17:06:18.776Z,102589.94
2023-02-02T17:08:47.876Z,102587.44
2023-02-02T17:11:24.084Z,102596.38
2023-02-02T17:13:54.491Z,102599.91
2023-02-02T17:16:24.753Z,102598.25
2023-02-02T17:18:53.254Z,102600.19
2023-02-02T17:21:23.828Z,102639.28
2023-02-02T17:23:54.216Z,102611.59
2023-02-02T17:26:22.565Z,102593.84
2023-02-02T17:28:56.275Z,102599.91
2023-02-02T17:31:24.422Z,102577.47
2023-02-02T17:33:52.403Z,102586.38
2023-02-02T17:36:20.737Z,102601.63
2023-02-02T17:38:48.641Z,102621.16
2023-02-02T17:41:16.693Z,102600.66
2023-02-02T17:43:45.866Z,102599.63
2023-02-02T17:46:15.232Z,102621.09
2023-02-02T17:48:43.362Z,102615.91
2023-02-02T17:51:16.125Z,102620.59
2023-02-02T17:53:44.912Z,102625.88
2023-02-02T17:56:12.996Z,102629.59
2023-02-02T17:58:40.999Z,102628.34
2023-02-02T18:01:12.004Z,102644.72
2023-02-02T18:03:42.823Z,102635.44
2023-02-02T18:06:12.333Z,102634.50
2023-02-02T18:08:40.932Z,102637.09
2023-02-02T18:11:12.327Z,102638.91
2023-02-02T18:13:42.555Z,102658.66
2023-02-02T18:16:11.622Z,102664.78
2023-02-02T18:18:41.545Z,102656.91
2023-02-02T18:21:10.683Z,102668.88
2023-02-02T18:23:39.312Z,102661.53
2023-02-02T18:26:12.044Z,102664.38
2023-02-02T18:28:40.618Z,102658.41
2023-02-02T18:31:10.169Z,102669.16
2023-02-02T18:33:40.733Z,102676.34
2023-02-02T18:36:23.686Z,102674.63
2023-02-02T18:38:53.981Z,102663.03
2023-02-02T18:41:23.512Z,102656.97
2023-02-02T18:43:54.776Z,102676.81
2023-02-02T18:46:22.794Z,102674.31
2023-02-02T18:48:50.931Z,102656.38
2023-02-02T18:51:21.965Z,102670.75
2023-02-02T18:53:49.979Z,102669.22
2023-02-02T18:56:18.440Z,102666.59
2023-02-02T18:58:46.453Z,102670.41
2023-02-02T19:01:17.219Z,102653.34
2023-02-02T19:03:50.211Z,102651.63
2023-02-02T19:06:37.267Z,102665.91
2023-02-02T19:09:07.560Z,102673.09
2023-02-02T19:11:39.087Z,102677.47
2023-02-02T19:14:13.611Z,102668.84
2023-02-02T19:16:41.785Z,102663.59
2023-02-02T19:19:17.807Z,102671.53
2023-02-02T19:21:45.795Z,102690.19
2023-02-02T19:24:15.937Z,102668.09
2023-02-02T19:26:47.334Z,102675.28
2023-02-02T19:29:19.933Z,102673.44
2023-02-02T19:31:53.671Z,102684.94
2023-02-02T19:34:24.189Z,102694.31
2023-02-02T19:36:52.423Z,102698.81
2023-02-02T19:39:28.525Z,102694.56
2023-02-02T19:42:00.466Z,102694.47
2023-02-02T19:44:32.211Z,102716.88
2023-02-02T19:47:00.658Z,102697.31
2023-02-02T19:49:32.967Z,102700.78
2023-02-02T19:52:03.963Z,102703.03
2023-02-02T19:54:38.062Z,102704.88
2023-02-02T19:57:17.355Z,102707.03
2023-02-02T19:59:48.259Z,102699.25
2023-02-02T20:02:39.332Z,102702.00
2023-02-02T20:05:19.018Z,102704.53
2023-02-02T20:07:47.511Z,102703.06
2023-02-02T20:10:27.435Z,102693.34
2023-02-02T20:12:56.224Z,102694.25
2023-02-02T20:15:34.278Z,102693.28
2023-02-02T20:18:04.789Z,102693.19
2023-02-02T20:20:40.320Z,102709.38
2023-02-02T20:23:24.451Z,102687.94
2023-02-02T20:25:54.151Z,102684.56
2023-02-02T20:28:41.728Z,102671.25
2023-02-02T20:31:12.086Z,102672.28
2023-02-02T20:33:43.074Z,102670.66
2023-02-02T20:36:29.887Z,102679.91
2023-02-02T20:39:01.408Z,102675.66
2023-02-02T20:41:31.973Z,102689.22
2023-02-02T20:43:59.842Z,102676.78
2023-02-02T20:46:27.818Z,102677.19
2023-02-02T20:48:55.709Z,102672.69
2023-02-02T20:51:23.927Z,102669.16
2023-02-02T20:53:55.551Z,102676.06
2023-02-02T20:56:23.705Z,102671.66
2023-02-02T20:58:53.221Z,102668.81
2023-02-02T21:01:23.620Z,102673.03
2023-02-02T21:03:51.649Z,102688.19
2023-02-02T21:06:19.898Z,102683.19
2023-02-02T21:08:51.540Z,102692.16
2023-02-02T21:11:20.058Z,102713.44
2023-02-02T21:13:48.531Z,102706.09
2023-02-02T21:16:20.442Z,102707.72
2023-02-02T21:18:48.622Z,102706.50
2023-02-02T21:21:17.139Z,102714.47
2023-02-02T21:23:47.292Z,102706.19
2023-02-02T21:26:15.686Z,102713.06
2023-02-02T21:28:43.872Z,102706.53
2023-02-02T21:31:14.043Z,102694.03
2023-02-02T21:33:44.944Z,102699.41
2023-02-02T21:36:29.797Z,102696.81
2023-02-02T21:39:03.890Z,102695.97
2023-02-02T21:41:34.493Z,102695.84
2023-02-02T21:44:02.503Z,102699.06
2023-02-02T21:46:36.960Z,102697.16
2023-02-02T21:49:13.969Z,102691.78
2023-02-02T21:51:42.037Z,102675.69
2023-02-02T21:54:26.403Z,102680.03
2023-02-02T21:56:55.615Z,102671.41
2023-02-02T21:59:25.423Z,102681.22
2023-02-02T22:01:53.744Z,102692.16
2023-02-02T22:04:25.854Z,102690.44
2023-02-02T22:06:55.517Z,102692.50
2023-02-02T22:09:28.172Z,102688.94
2023-02-02T22:11:59.265Z,102686.72
2023-02-02T22:14:37.101Z,102687.66
2023-02-02T22:17:23.231Z,102688.53
2023-02-02T22:19:58.177Z,102693.19
2023-02-02T22:22:32.052Z,102687.94
2023-02-02T22:25:01.374Z,102702.34
2023-02-02T22:27:41.882Z,102691.56
2023-02-02T22:30:22.208Z,102698.72
2023-02-02T22:32:50.226Z,102685.25
2023-02-02T22:35:19.781Z,102686.81
2023-02-02T22:37:47.824Z,102687.47
2023-02-02T22:40:16.518Z,102689.22
2023-02-02T22:42:44.900Z,102697.88
2023-02-02T22:45:13.021Z,102713.97
2023-02-02T22:47:41.069Z,102721.91
2023-02-02T22:50:09.613Z,102713.97
2023-02-02T22:52:39.063Z,102709.38
2023-02-02T22:55:07.972Z,102696.72
2023-02-02T22:57:36.028Z,102692.31
2023-02-02T23:00:05.825Z,102692.25
2023-02-02T23:02:34.121Z,102703.63
2023-02-02T23:05:02.117Z,102703.84
2023-02-02T23:07:30.122Z,102710.56
2023-02-02T23:09:59.499Z,102702.34
2023-02-02T23:12:27.441Z,102717.38
2023-02-02T23:14:55.347Z,102714.00
2023-02-02T23:17:23.402Z,102711.31
2023-02-02T23:19:51.396Z,102719.22
2023-02-02T23:22:19.357Z,102732.25
2023-02-02T23:24:47.214Z,102735.91
2023-02-02T23:27:17.081Z,102741.47
2023-02-02T23:29:45.062Z,102758.31
2023-02-02T23:32:13.161Z,102766.19
2023-02-02T23:34:41.156Z,102771.38
2023-02-02T23:37:09.084Z,102775.00
2023-02-02T23:39:36.992Z,102775.16
2023-02-02T23:42:05.146Z,102768.09
2023-02-02T23:44:34.561Z,102778.66
2023-02-02T23:47:02.975Z,102778.66
2023-02-02T23:49:33.898Z,102766.09
2023-02-02T23:52:02.311Z,102774.16
2023-02-02T23:54:31.418Z,102795.44
2023-02-02T23:56:59.798Z,102786.50
2023-02-02T23:59:28.122Z,102792.91
